Station EPTT2 - 8771013 - Eagle Point, TX Image indicating link to RSS feed of recent meteorological observations for station EPTT2


Conditions at EPTT2 as of
(2:30 pm CDT)
1930 GMT on 09/06/2026:
     

Click on the graph icon in the table below to see a time series plot of the last five days of that observation.

5-day plot - Wind Direction Wind Direction (WDIR):WSW ( 240 deg true )
5-day plot - Wind Speed Wind Speed (WSPD): 5.1 kts
5-day plot - Wind Gust Wind Gust (GST): 7.0 kts
5-day plot - Atmospheric Pressure Atmospheric Pressure (PRES):29.88 in
5-day plot - Air Temperature Air Temperature (ATMP): 87.6 °F
5-day plot - Water Temperature Water Temperature (WTMP): 88.9 °F
5-day plot - Wind Speed at 10 Meters Wind Speed at 10 meters (WSPD10M): 5.8 kts
5-day plot - Wind Speed at 20 Meters Wind Speed at 20 meters (WSPD20M): 5.8 kts
5-day plot -  Wind Speed, Wind Gust and Atmospheric Pressure Combined plot of Wind Speed, Gust, and Air Pressure
Previous observations
TIME
(CDT)
5-day plot - Wind Direction
WDIR
 
5-day plot - Wind Speed
WSPD
kts
5-day plot - Wind Gust
GST
kts
5-day plot - Wave Height
WVHT
ft
5-day plot - Dominant Wave Period
DPD
sec
5-day plot - Average Wave Period
APD
sec
5-day plot - Mean Wave Direction
MWD
 
5-day plot - Atmospheric Pressure
PRES
in
5-day plot - Pressure Tendency
PTDY
in
5-day plot - Air Temperature
ATMP
°F
5-day plot - Water Temperature
WTMP
°F
5-day plot - Dew Point
DEWP
°F
5-day plot - Salinity
SAL
psu
5-day plot - Visibility
VIS
nmi
5-day plot - Tide (above MLLW)
TIDE
ft
2026-09-06 02:24 pmWSW 5.1 6.0----29.88- 87.8 88.7----
2026-09-06 02:18 pmWSW 5.1 6.0----29.89-- 88.7----
2026-09-06 02:12 pm SW 1.9 5.1----29.89-- 88.5----
2026-09-06 02:06 pm SW 2.9 7.0----29.89-- 88.7----
2026-09-06 02:00 pm SW 5.1 7.0----29.89-0.03 87.3 88.9----
2026-09-06 01:54 pmWSW 5.1 7.0----29.89- 87.1 89.2----
2026-09-06 01:48 pmWSW 4.1 6.0----29.88- 86.9 89.1----
2026-09-06 01:42 pm SW 2.9 7.0----29.89- 86.5 88.9----
2026-09-06 01:36 pm SW 5.1 8.0----29.89- 85.8 88.9----
2026-09-06 01:30 pm SW 6.0 8.0----29.89- 85.5 88.9----
2026-09-06 01:24 pmWSW 4.1 6.0----29.89- 86.4 88.5----
2026-09-06 01:18 pmWSW 5.1 7.0----29.89-- 88.5----
2026-09-06 01:12 pm W 5.1 7.0----29.90-- 88.5----
2026-09-06 01:06 pmWSW 4.1 8.0----29.90-- 88.5----
2026-09-06 01:00 pmSSW 8.9 11.1----29.90+0.00 82.6 88.5----
2026-09-06 12:54 pm SW 9.9 14.0----29.91- 82.2 88.5----
2026-09-06 12:48 pm SW 8.9 15.0----29.91-------
2026-09-06 12:42 pmWSW 11.1 18.1----29.91-------
2026-09-06 12:36 pm SW 11.1 17.1----29.91-------
2026-09-06 12:30 pmSSW 9.9 15.9----29.91- 85.8 88.3----
2026-09-06 12:24 pmWSW 6.0 13.0----29.91- 85.8 88.3----
2026-09-06 12:18 pmWSW 7.0 12.0----29.92-- 88.3----
2026-09-06 12:12 pmSSW 5.1 8.9----29.92-- 88.3----
2026-09-06 12:06 pmESE 2.9 5.1----29.92-- 88.2----
2026-09-06 12:00 pm E 5.1 6.0----29.92+0.02 88.0 88.2----
2026-09-06 11:54 am E 5.1 6.0----29.92- 87.8 88.2----
2026-09-06 11:48 am E 5.1 7.0----29.92- 87.6 88.2----
2026-09-06 11:42 am E 5.1 7.0----29.92- 87.4 88.2----
2026-09-06 11:36 am E 5.1 6.0----29.92- 87.1 87.8----
2026-09-06 11:30 amENE 5.1 6.0----29.92- 87.1 87.6----
2026-09-06 11:24 am E 6.0 7.0----29.91- 86.7 87.6----
2026-09-06 11:18 am E 6.0 8.0----29.91-- 87.4----
2026-09-06 11:12 am E 6.0 7.0----29.92-- 87.4----
2026-09-06 11:06 am E 6.0 7.0----29.92-- 87.6----
2026-09-06 11:00 am E 5.1 7.0----29.92+0.04 87.1 87.4----
2026-09-06 10:54 amENE 5.1 7.0----29.92- 86.9 87.4----
2026-09-06 10:48 am E 6.0 7.0----29.91- 86.7 87.4----
2026-09-06 10:42 am E 5.1 7.0----29.91- 86.7 87.4----
2026-09-06 10:36 am E 5.1 6.0----29.91- 86.5 87.4----
2026-09-06 10:30 amENE 5.1 7.0----29.91- 86.2 87.4----
2026-09-06 10:24 amENE 6.0 7.0----29.91- 86.2 87.3----
2026-09-06 10:18 amENE 6.0 7.0----29.91-- 87.3----
2026-09-06 10:12 amENE 6.0 7.0----29.91-- 87.3----
2026-09-06 10:06 amENE 6.0 7.0----29.91-- 87.3----
2026-09-06 10:00 amENE 7.0 8.0----29.91+0.04 85.5 87.3----
2026-09-06 09:54 amENE 7.0 8.0----29.91- 85.5 87.1----
2026-09-06 09:48 amENE 7.0 7.0----29.91- 85.5 87.1----
2026-09-06 09:42 amENE 6.0 7.0----29.91- 85.5 87.1----
2026-09-06 09:36 amENE 6.0 7.0----29.91- 85.3 87.1----
2026-09-06 09:30 amENE 6.0 7.0----29.91- 85.5 87.1----
2026-09-06 09:24 amENE 5.1 6.0----29.91- 85.3 87.1----
2026-09-06 09:18 amENE 6.0 6.0----29.91-- 87.1----
2026-09-06 09:12 amENE 6.0 7.0----29.91-- 86.9----
2026-09-06 09:06 am NE 7.0 8.0----29.90-- 86.9----
2026-09-06 09:00 am NE 7.0 8.0----29.90+0.05 85.1 86.9----
2026-09-06 08:54 am NE 7.0 8.0----29.90- 85.6 86.9----
2026-09-06 08:48 am N 4.1 5.1----29.90-- 86.9----
2026-09-06 08:42 amNNE 2.9 4.1----29.90-- 86.9----
2026-09-06 08:36 am N 2.9 4.1----29.90-- 86.9----
2026-09-06 08:30 am N 1.9 2.9----29.90- 87.3 86.9----
2026-09-06 08:24 amNNE 1.0 1.9----29.90- 87.8 87.1----
2026-09-06 08:18 am- 0.0 1.9----29.90-- 87.1----
2026-09-06 08:12 am- 0.0 1.0----29.89-- 86.9----
2026-09-06 08:06 amWNW 1.0 1.9----29.89-- 86.9----
2026-09-06 08:00 am- 0.0 1.9----29.88+0.04 86.5 86.9----
2026-09-06 07:54 amNNW 1.0 2.9----29.88- 85.5 86.9----
2026-09-06 07:48 am NW 1.9 2.9----29.88-- 87.1----
2026-09-06 07:42 am NW 2.9 4.1----29.88-- 86.9----
2026-09-06 07:36 am NW 2.9 2.9----29.88-- 86.9----
2026-09-06 07:30 am NW 2.9 2.9----29.88- 83.5 86.9----
2026-09-06 07:24 am NW 2.9 2.9----29.87- 83.1 86.9----
2026-09-06 07:18 am NW 1.9 2.9----29.87-- 86.9----
2026-09-06 07:12 am NW 2.9 4.1----29.87-- 86.9----
2026-09-06 07:06 am NW 2.9 4.1----29.87-- 86.9----
2026-09-06 07:00 am NW 2.9 2.9----29.87+0.03 82.4 87.1----
2026-09-06 06:54 am NW 2.9 2.9----29.87- 82.4 87.1----
2026-09-06 06:48 amWNW 1.9 2.9----29.87-- 87.1----
2026-09-06 06:42 amWNW 1.9 2.9----29.86-- 87.1----
2026-09-06 06:36 amWNW 2.9 2.9----29.86-- 87.1----
2026-09-06 06:30 amWNW 2.9 2.9----29.86- 82.4 87.1----
2026-09-06 06:24 amWNW 1.9 2.9----29.86- 82.4 87.1----
2026-09-06 06:18 am NW 2.9 2.9----29.85-- 87.1----
2026-09-06 06:12 am NW 2.9 4.1----29.85-- 87.1----
2026-09-06 06:06 am NW 2.9 2.9----29.85-- 87.1----
2026-09-06 06:00 amWNW 2.9 2.9----29.85+0.00 82.4 87.1----
2026-09-06 05:54 amWNW 2.9 2.9----29.85- 82.4 87.1----
2026-09-06 05:48 amWNW 2.9 4.1----29.85- 82.6 87.1----
2026-09-06 05:42 am W 2.9 4.1----29.85- 82.6 87.1----
2026-09-06 05:36 am W 1.9 2.9----29.85- 82.6 87.1----
2026-09-06 05:30 amWNW 2.9 2.9----29.85- 82.6 87.1----
2026-09-06 05:24 am W 2.9 2.9----29.85- 82.6 87.1----
2026-09-06 05:18 amWNW 1.9 2.9----29.85-- 87.1----
2026-09-06 05:12 amWNW 1.9 2.9----29.85-- 87.1----
2026-09-06 05:06 am W 1.9 2.9----29.85-- 87.1----
2026-09-06 05:00 am W 2.9 4.1----29.85+0.00 83.1 87.1----
2026-09-06 04:54 am W 2.9 4.1----29.85- 82.9 87.1----
2026-09-06 04:48 am W 2.9 2.9----29.84- 82.9 87.1----
2026-09-06 04:42 am W 1.9 4.1----29.84- 82.9 87.1----
2026-09-06 04:36 am W 2.9 4.1----29.84- 82.9 87.1----
2026-09-06 04:30 am W 2.9 2.9----29.84- 82.9 87.1----
2026-09-06 04:24 amWNW 2.9 2.9----29.84- 83.1 87.1----
2026-09-06 04:18 amWNW 2.9 4.1----29.84-- 87.1----
2026-09-06 04:12 am W 2.9 2.9----29.84-- 87.1----
2026-09-06 04:06 am W 2.9 4.1----29.84-- 87.1----
2026-09-06 04:00 am W 2.9 2.9----29.84+0.00 83.3 87.1----
2026-09-06 03:54 am W 2.9 2.9----29.84- 83.3 87.1----
2026-09-06 03:48 amWNW 1.9 2.9----29.84- 83.1 87.3----
2026-09-06 03:42 amWNW 1.9 2.9----29.84- 83.1 87.3----
2026-09-06 03:36 am NW 1.9 2.9----29.84- 83.3 87.3----
2026-09-06 03:30 amWNW 1.0 1.9----29.84- 83.3 87.3----
2026-09-06 03:24 amWNW 1.9 2.9----29.84- 83.3 87.3----
2026-09-06 03:18 amWNW 1.9 2.9----29.84-- 87.3----
2026-09-06 03:12 amWNW 1.9 2.9----29.85-- 87.3----
2026-09-06 03:06 amWNW 1.9 2.9----29.85-- 87.3----
2026-09-06 03:00 am W 2.9 4.1----29.85+0.00 83.5 87.3----
2026-09-06 02:54 amWNW 1.9 2.9----29.85- 83.5 87.3----
2026-09-06 02:48 amWNW 2.9 2.9----29.85- 83.7 87.4----
2026-09-06 02:42 am W 1.9 4.1----29.84- 83.5 87.4----
2026-09-06 02:36 am W 2.9 5.1----29.84- 83.5 87.4----
2026-09-06 02:30 am W 2.9 5.1----29.84- 83.7 87.4----
2026-09-06 02:24 am W 2.9 4.1----29.84- 83.7 87.4----
2026-09-06 02:18 am W 2.9 4.1----29.84-- 87.4----
2026-09-06 02:12 am NW 2.9 4.1----29.85-- 87.4----
2026-09-06 02:06 am W 1.9 5.1----29.85-- 87.4----
2026-09-06 02:00 am W 2.9 4.1----29.85-0.01 84.6 87.4----
2026-09-06 01:54 am W 1.9 4.1----29.85- 84.9 87.6----
2026-09-06 01:48 amWSW 2.9 5.1----29.85- 85.3 87.6----
2026-09-06 01:42 amWSW 2.9 5.1----29.85- 85.3 87.6----
2026-09-06 01:36 amWSW 2.9 5.1----29.85- 85.3 87.6----
2026-09-06 01:30 am W 1.9 5.1----29.85- 85.1 87.6----
2026-09-06 01:24 amWSW 4.1 5.1----29.85- 85.1 87.8----
2026-09-06 01:18 amWSW 5.1 7.0----29.85-- 87.8----
2026-09-06 01:12 am SW 5.1 6.0----29.85-- 87.8----
2026-09-06 01:06 am SW 4.1 7.0----29.85-- 87.8----
2026-09-06 01:00 am SW 5.1 8.0----29.85-0.01 85.5 88.0----
2026-09-06 12:54 am SW 7.0 8.0----29.85- 85.8 88.0----
2026-09-06 12:48 am SW 6.0 8.0----29.84- 85.6 88.0----
2026-09-06 12:42 am SW 5.1 8.0----29.84- 85.5 88.2----
2026-09-06 12:36 amSSW 7.0 8.0----29.85- 85.6 88.2----
2026-09-06 12:30 amSSW 7.0 8.0----29.85- 86.0 88.2----
2026-09-06 12:24 amSSW 6.0 7.0----29.85- 86.4 88.2----
2026-09-06 12:18 amSSW 6.0 7.0----29.85-- 88.0----
2026-09-06 12:12 amSSW 5.1 6.0----29.85-- 88.0----
2026-09-06 12:06 am SW 2.9 4.1----29.85-- 88.0----
2026-09-06 12:00 am SW 4.1 5.1----29.85+0.01 86.2 88.2----
2026-09-05 11:54 pm SW 4.1 5.1----29.85- 86.2 88.2----
2026-09-05 11:48 pm SW 4.1 7.0----29.85- 86.4 88.2----
2026-09-05 11:42 pm S 6.0 7.0----29.85- 86.7 88.2----
2026-09-05 11:36 pm S 6.0 7.0----29.85- 86.9 88.3----
2026-09-05 11:30 pm S 6.0 8.9----29.85- 86.7 88.3----
2026-09-05 11:24 pm S 7.0 8.9----29.85- 87.1 88.3----
2026-09-05 11:18 pm S 8.0 8.9----29.85-- 88.5----
2026-09-05 11:12 pmSSE 5.1 7.0----29.85-- 88.5----
2026-09-05 11:06 pm SE 5.1 7.0----29.85-- 88.5----
2026-09-05 11:00 pm SE 5.1 7.0----29.86+0.03 86.4 88.5----
2026-09-05 10:54 pm SE 5.1 7.0----29.86- 86.4 88.5----
2026-09-05 10:48 pm SE 6.0 7.0----29.85- 86.4 88.5----
2026-09-05 10:42 pm SE 6.0 6.0----29.85- 86.2 88.5----
2026-09-05 10:36 pmESE 6.0 7.0----29.86- 86.0 88.5----
2026-09-05 10:30 pmESE 7.0 8.0----29.86- 86.0 88.5----
2026-09-05 10:24 pmESE 7.0 8.0----29.86- 86.2 88.5----
2026-09-05 10:18 pmESE 7.0 8.0----29.86- 86.0 88.5----
2026-09-05 10:12 pm E 7.0 8.9----29.86- 86.2 88.5----
2026-09-05 10:06 pm E 7.0 8.0----29.86- 86.2 88.5----
2026-09-05 10:00 pm E 7.0 8.0----29.85+0.01 86.0 88.5----
2026-09-05 09:54 pm E 7.0 8.0----29.85- 86.0 88.7----
2026-09-05 09:48 pm E 7.0 8.0----29.85- 85.8 88.7----
2026-09-05 09:42 pm E 7.0 8.0----29.85- 85.5 88.9----
2026-09-05 09:36 pm E 7.0 8.9----29.85- 85.1 88.7----
2026-09-05 09:30 pmENE 8.0 8.9----29.85- 85.1 88.7----
2026-09-05 09:24 pmENE 8.0 9.9----29.84- 85.1 88.7----
2026-09-05 09:18 pmENE 8.0 8.9----29.84-- 88.7----
2026-09-05 09:12 pmENE 8.0 8.9----29.83-- 88.7----
2026-09-05 09:06 pm E 7.0 8.0----29.83-- 88.9----
2026-09-05 09:00 pmESE 7.0 8.0----29.83+0.00 87.1 88.9----
2026-09-05 08:54 pmESE 6.0 7.0----29.83- 87.1 88.7----
2026-09-05 08:48 pm SE 7.0 8.9----29.83-- 88.9----
2026-09-05 08:42 pm SE 8.0 8.9----29.83-- 88.9----
2026-09-05 08:36 pm SE 6.0 8.0----29.83-- 88.9----
2026-09-05 08:30 pmESE 7.0 8.0----29.82- 87.1 88.9----
2026-09-05 08:24 pmESE 7.0 8.9----29.82- 87.3 88.9----
2026-09-05 08:18 pmESE 8.0 8.9----29.83-- 88.9----
2026-09-05 08:12 pmESE 8.0 8.9----29.83-- 88.9----
2026-09-05 08:06 pm E 7.0 8.0----29.82-- 88.9----
2026-09-05 08:00 pmESE 7.0 8.0----29.83-0.01 87.3 88.9----
2026-09-05 07:54 pm E 6.0 8.0----29.83- 87.3 88.9----
2026-09-05 07:48 pmESE 7.0 8.0----29.83- 87.3 89.1----
2026-09-05 07:42 pmESE 6.0 7.0----29.83- 87.3 89.1----
2026-09-05 07:36 pm E 7.0 8.0----29.83- 87.3 89.2----
2026-09-05 07:30 pm-------29.83- 87.3 89.2----
2026-09-05 07:24 pm-------29.83- 87.3 89.2----
2026-09-05 07:18 pmESE 6.0 7.0----29.83-- 89.2----
2026-09-05 07:12 pm E 5.1 7.0----29.84-- 89.2----
2026-09-05 07:06 pmESE 6.0 7.0----29.84-- 89.2----
2026-09-05 07:00 pmESE 6.0 7.0----29.84+0.00 87.4 89.2----
2026-09-05 06:54 pmESE 6.0 7.0----29.84- 87.4 89.2----
2026-09-05 06:48 pmESE 6.0 8.0----29.84-- 89.2----
2026-09-05 06:42 pmESE 7.0 8.9----29.84-- 89.4----
2026-09-05 06:36 pmESE 8.0 9.9----29.84-- 89.4----
2026-09-05 06:30 pm SE 8.0 9.9----29.84- 87.4 89.4----
2026-09-05 06:24 pmESE 8.9 9.9----29.84- 87.4 89.6----
2026-09-05 06:18 pmESE 8.0 8.9----29.84-- 89.6----
2026-09-05 06:12 pmESE 8.0 8.9----29.84-- 89.6----
2026-09-05 06:06 pmESE 8.0 9.9----29.84-- 89.6----
2026-09-05 06:00 pmESE 8.0 11.1----29.84-0.02 87.4 89.6----
2026-09-05 05:54 pm SE 8.0 9.9----29.84- 87.4 89.6----
2026-09-05 05:48 pm SE 8.0 11.1----29.84- 87.6 89.4----
2026-09-05 05:42 pm SE 8.9 11.1----29.84- 87.6 89.4----
2026-09-05 05:36 pm SE 8.0 9.9----29.84- 87.4 89.4----
2026-09-05 05:30 pm SE 8.0 9.9----29.84- 87.6 89.4----
2026-09-05 05:24 pm SE 8.9 11.1----29.84- 87.6 89.4----
2026-09-05 05:18 pm SE 8.9 9.9----29.84-- 89.4----
2026-09-05 05:12 pm SE 8.9 9.9----29.84-- 89.6----
2026-09-05 05:06 pm SE 8.0 9.9----29.83-- 89.6----
2026-09-05 05:00 pmSSE 7.0 8.9----29.83-0.05 88.0 89.6----
2026-09-05 04:54 pm SE 7.0 8.9----29.84- 88.2 89.6----
2026-09-05 04:48 pm SE 7.0 8.0----29.84- 88.3 89.6----
2026-09-05 04:42 pm SE 6.0 7.0----29.84- 88.3 89.6----
2026-09-05 04:36 pmESE 6.0 8.0----29.84- 88.2 89.6----
2026-09-05 04:30 pmESE 6.0 7.0----29.84- 88.2 89.6----
2026-09-05 04:24 pmESE 7.0 8.0----29.84- 88.2 89.6----
2026-09-05 04:18 pmESE 8.0 8.9----29.84-- 89.6----
2026-09-05 04:12 pmESE 7.0 8.9----29.85-- 89.6----
2026-09-05 04:06 pmESE 7.0 8.9----29.85-- 89.6----
2026-09-05 04:00 pmESE 8.0 9.9----29.85- 88.2 89.6----
2026-09-05 03:54 pmESE 8.0 9.9----29.85- 88.3 89.4----
2026-09-05 03:48 pm SE 7.0 8.0----29.85- 88.3 89.4----
2026-09-05 03:42 pmESE 7.0 7.0----29.85- 88.7 89.4----
2026-09-05 03:36 pmESE 6.0 7.0----29.85- 89.4 89.4----
2026-09-05 03:30 pmESE 7.0 8.0----29.85- 89.2 89.2----
2026-09-05 03:24 pmESE 6.0 7.0----29.85- 89.2 89.2----
2026-09-05 03:18 pmESE 6.0 7.0----29.86-- 89.2----
2026-09-05 03:12 pm SE 4.1 6.0----29.86-- 89.2----
2026-09-05 03:06 pm SE 5.1 6.0----29.86-- 89.1----
2026-09-05 03:00 pm SE 5.1 5.1----29.86-0.06 88.9 89.1----
2026-09-05 02:54 pmESE 4.1 6.0----29.86- 89.1 89.1----